createdAt,value
2023-04-01T00:02:08.378Z,9.90
2023-04-01T00:04:36.742Z,12.77
2023-04-01T00:07:05.061Z,12.33
2023-04-01T00:09:32.803Z,10.97
2023-04-01T00:12:00.648Z,11.30
2023-04-01T00:14:28.587Z,12.80
2023-04-01T00:16:59.158Z,14.00
2023-04-01T00:19:26.981Z,12.20
2023-04-01T00:21:54.916Z,10.00
2023-04-01T00:24:22.865Z,13.07
2023-04-01T00:26:50.732Z,9.97
2023-04-01T00:29:19.003Z,11.57
2023-04-01T00:31:47.442Z,16.33
2023-04-01T00:34:16.891Z,10.97
2023-04-01T00:36:44.630Z,16.63
2023-04-01T00:39:12.602Z,11.47
2023-04-01T00:41:40.526Z,13.20
2023-04-01T00:44:18.609Z,13.53
2023-04-01T00:46:46.543Z,10.03
2023-04-01T00:49:14.863Z,13.77
2023-04-01T00:51:45.619Z,11.07
2023-04-01T00:54:13.457Z,11.33
2023-04-01T00:56:43.831Z,10.67
2023-04-01T00:59:13.882Z,11.80
2023-04-01T01:01:41.801Z,11.50
2023-04-01T01:04:09.487Z,12.43
2023-04-01T01:06:45.207Z,13.43
2023-04-01T01:09:20.668Z,10.87
2023-04-01T01:11:53.011Z,9.20
2023-04-01T01:14:28.855Z,9.97
2023-04-01T01:17:02.003Z,12.63
2023-04-01T01:19:45.138Z,11.57
2023-04-01T01:22:31.179Z,12.07
2023-04-01T01:25:07.083Z,7.93
2023-04-01T01:27:36.550Z,9.80
2023-04-01T01:30:16.742Z,8.47
2023-04-01T01:32:56.223Z,9.33
2023-04-01T01:35:28.742Z,6.17
2023-04-01T01:37:57.872Z,9.70
2023-04-01T01:40:26.864Z,9.30
2023-04-01T01:42:57.365Z,4.70
2023-04-01T01:45:27.200Z,6.70
2023-04-01T01:47:57.264Z,9.17
2023-04-01T01:50:27.504Z,10.00
2023-04-01T01:53:02.232Z,6.43
2023-04-01T01:55:34.155Z,6.10
2023-04-01T01:58:03.872Z,5.70
2023-04-01T02:00:31.954Z,6.37
2023-04-01T02:03:00.577Z,4.83
2023-04-01T02:05:32.871Z,8.03
2023-04-01T02:08:03.353Z,5.93
2023-04-01T02:10:33.775Z,6.70
2023-04-01T02:13:04.175Z,7.27
2023-04-01T02:15:34.413Z,6.03
2023-04-01T02:18:02.598Z,4.20
2023-04-01T02:20:32.524Z,5.60
2023-04-01T02:23:02.334Z,7.50
2023-04-01T02:25:31.916Z,6.73
2023-04-01T02:28:00.460Z,7.47
2023-04-01T02:30:29.276Z,9.87
2023-04-01T02:32:58.585Z,8.57
2023-04-01T02:35:27.238Z,6.63
2023-04-01T02:37:56.921Z,6.33
2023-04-01T02:40:24.668Z,6.67
2023-04-01T02:42:53.009Z,9.10
2023-04-01T02:45:21.051Z,8.77
2023-04-01T02:47:48.890Z,11.67
2023-04-01T02:50:17.770Z,9.40
2023-04-01T02:52:46.060Z,8.93
2023-04-01T02:55:15.150Z,10.80
2023-04-01T02:57:42.949Z,10.87
2023-04-01T03:00:12.320Z,11.77
2023-04-01T03:02:40.298Z,10.30
2023-04-01T03:05:08.788Z,11.27
2023-04-01T03:07:36.607Z,13.03
2023-04-01T03:10:04.557Z,11.87
2023-04-01T03:12:33.808Z,9.50
2023-04-01T03:15:10.606Z,9.40
2023-04-01T03:17:39.645Z,7.57
2023-04-01T03:20:09.553Z,11.10
2023-04-01T03:22:37.541Z,13.03
2023-04-01T03:25:07.169Z,10.10
2023-04-01T03:27:36.780Z,13.13
2023-04-01T03:30:04.748Z,8.13
2023-04-01T03:32:33.215Z,9.97
2023-04-01T03:35:01.006Z,8.60
2023-04-01T03:37:28.997Z,8.30
2023-04-01T03:39:56.728Z,13.83
2023-04-01T03:42:24.743Z,11.37
2023-04-01T03:44:53.872Z,16.37
2023-04-01T03:47:21.743Z,11.47
2023-04-01T03:49:49.499Z,15.50
2023-04-01T03:52:17.201Z,15.37
2023-04-01T03:54:45.095Z,12.50
2023-04-01T03:57:14.831Z,12.03
2023-04-01T03:59:43.557Z,9.17
2023-04-01T04:02:12.974Z,8.80
2023-04-01T04:04:40.894Z,14.27
2023-04-01T04:07:09.160Z,11.83
2023-04-01T04:09:36.884Z,4.80
2023-04-01T04:12:06.605Z,9.90
2023-04-01T04:14:34.366Z,7.70
2023-04-01T04:17:02.534Z,13.50
2023-04-01T04:19:35.968Z,6.97
2023-04-01T04:22:03.857Z,9.70
2023-04-01T04:24:31.534Z,10.80
2023-04-01T04:26:59.144Z,9.83
2023-04-01T04:29:27.303Z,10.17
2023-04-01T04:31:55.455Z,12.87
2023-04-01T04:34:23.952Z,11.13
2023-04-01T04:36:53.468Z,11.53
2023-04-01T04:39:21.250Z,9.93
2023-04-01T04:41:48.910Z,10.90
2023-04-01T04:44:16.932Z,8.97
2023-04-01T04:46:44.813Z,9.07
2023-04-01T04:49:12.639Z,10.73
2023-04-01T04:51:41.065Z,6.03
2023-04-01T04:54:10.778Z,9.33
2023-04-01T04:56:39.594Z,6.80
2023-04-01T04:59:07.602Z,7.10
2023-04-01T05:01:35.563Z,6.50
2023-04-01T05:04:03.292Z,5.77
2023-04-01T05:06:32.595Z,7.03
2023-04-01T05:09:00.837Z,5.77
2023-04-01T05:11:31.630Z,6.40
2023-04-01T05:13:59.768Z,10.23
2023-04-01T05:16:27.636Z,4.50
2023-04-01T05:18:55.723Z,8.60
2023-04-01T05:21:23.501Z,9.03
2023-04-01T05:23:51.540Z,11.93
2023-04-01T05:26:19.558Z,10.87
2023-04-01T05:28:49.016Z,9.30
2023-04-01T05:31:17.889Z,10.70
2023-04-01T05:33:45.632Z,5.10
2023-04-01T05:36:14.871Z,8.50
2023-04-01T05:38:43.544Z,7.10
2023-04-01T05:41:11.484Z,11.17
2023-04-01T05:43:41.181Z,10.27
2023-04-01T05:46:10.561Z,7.63
2023-04-01T05:48:38.310Z,9.67
2023-04-01T05:51:08.179Z,7.20
2023-04-01T05:53:36.111Z,8.50
2023-04-01T05:56:05.054Z,18.90
2023-04-01T05:58:32.999Z,8.73
2023-04-01T06:01:10.395Z,9.20
2023-04-01T06:03:43.396Z,9.57
2023-04-01T06:06:14.940Z,7.93
2023-04-01T06:08:42.623Z,12.47
2023-04-01T06:11:19.810Z,9.50
2023-04-01T06:14:06.660Z,6.80
2023-04-01T06:16:38.658Z,7.60
2023-04-01T06:19:18.465Z,9.57
2023-04-01T06:22:07.186Z,10.50
2023-04-01T06:24:43.376Z,4.90
2023-04-01T06:27:18.319Z,5.67
2023-04-01T06:29:54.464Z,6.80
2023-04-01T06:32:31.013Z,5.53
2023-04-01T06:35:17.718Z,7.07
2023-04-01T06:38:04.094Z,5.83
2023-04-01T06:40:46.833Z,6.33
2023-04-01T06:43:21.211Z,7.70
2023-04-01T06:45:54.131Z,5.07
2023-04-01T06:48:34.679Z,6.83
2023-04-01T06:51:10.122Z,5.63
2023-04-01T06:53:41.252Z,5.63
2023-04-01T06:56:11.318Z,7.37
2023-04-01T06:58:43.476Z,7.40
2023-04-01T07:01:15.742Z,8.13
2023-04-01T07:03:44.944Z,6.83
2023-04-01T07:06:16.662Z,7.70
2023-04-01T07:08:47.059Z,6.70
2023-04-01T07:11:19.918Z,8.80
2023-04-01T07:13:51.952Z,9.07
2023-04-01T07:16:22.289Z,8.90
2023-04-01T07:18:52.481Z,9.53
2023-04-01T07:21:25.999Z,6.23
2023-04-01T07:23:54.773Z,7.10
2023-04-01T07:26:24.715Z,11.13
2023-04-01T07:28:55.362Z,8.03
2023-04-01T07:31:31.635Z,6.37
2023-04-01T07:34:05.400Z,4.93
2023-04-01T07:36:35.950Z,3.67
2023-04-01T07:39:08.290Z,3.13
2023-04-01T07:41:41.909Z,6.30
2023-04-01T07:44:15.589Z,5.60
2023-04-01T07:46:50.472Z,6.43
2023-04-01T07:49:19.992Z,5.23
2023-04-01T07:51:52.875Z,3.00
2023-04-01T07:54:25.294Z,5.10
2023-04-01T07:56:55.009Z,3.83
2023-04-01T07:59:26.829Z,5.37
2023-04-01T08:01:58.716Z,2.83
2023-04-01T08:04:30.609Z,3.80
2023-04-01T08:07:01.441Z,7.00
2023-04-01T08:09:35.472Z,8.40
2023-04-01T08:12:07.118Z,8.50
2023-04-01T08:14:40.401Z,6.23
2023-04-01T08:17:13.438Z,5.57
2023-04-01T08:19:53.103Z,3.60
2023-04-01T08:22:24.826Z,5.30
2023-04-01T08:24:54.991Z,10.30
2023-04-01T08:27:24.677Z,5.60
2023-04-01T08:30:01.185Z,3.97
2023-04-01T08:32:32.563Z,4.13
2023-04-01T08:35:05.471Z,7.70
2023-04-01T08:37:37.228Z,4.50
2023-04-01T08:40:16.345Z,4.73
2023-04-01T08:42:52.706Z,6.60
2023-04-01T08:45:34.984Z,4.07
2023-04-01T08:48:18.007Z,5.37
2023-04-01T08:51:01.542Z,7.03
2023-04-01T08:53:37.702Z,6.53
2023-04-01T08:56:11.604Z,5.63
2023-04-01T08:58:49.390Z,5.07
2023-04-01T09:01:24.035Z,3.40
2023-04-01T09:04:01.092Z,5.60
2023-04-01T09:06:35.579Z,5.30
2023-04-01T09:09:24.695Z,5.50
2023-04-01T09:12:03.044Z,4.63
2023-04-01T09:14:42.364Z,6.07
2023-04-01T09:17:31.216Z,4.53
2023-04-01T09:20:12.583Z,3.97
2023-04-01T09:22:45.155Z,6.07
2023-04-01T09:25:34.393Z,8.10
2023-04-01T09:28:06.445Z,6.17
2023-04-01T09:30:36.909Z,3.30
2023-04-01T09:33:26.122Z,3.57
2023-04-01T09:36:05.072Z,3.33
2023-04-01T09:38:39.746Z,3.93
2023-04-01T09:41:14.631Z,5.63
2023-04-01T09:43:49.384Z,3.90
2023-04-01T09:46:21.833Z,5.30
2023-04-01T09:49:03.148Z,6.07
2023-04-01T09:51:53.063Z,8.67
2023-04-01T09:54:27.314Z,6.80
2023-04-01T09:57:28.008Z,5.37
2023-04-01T10:00:10.786Z,5.53
2023-04-01T10:02:53.728Z,5.77
2023-04-01T10:05:29.880Z,6.53
2023-04-01T10:08:11.929Z,5.47
2023-04-01T10:10:48.998Z,6.77
2023-04-01T10:13:37.463Z,4.80
2023-04-01T10:16:26.322Z,5.00
2023-04-01T10:19:01.144Z,4.17
2023-04-01T10:21:46.524Z,6.53
2023-04-01T10:24:25.841Z,6.63
2023-04-01T10:27:05.815Z,8.30
2023-04-01T10:29:44.824Z,5.87
2023-04-01T10:32:35.042Z,7.63
2023-04-01T10:35:16.643Z,9.83
2023-04-01T10:38:05.244Z,4.20
2023-04-01T10:40:40.551Z,3.43
2023-04-01T10:43:28.949Z,10.60
2023-04-01T10:46:16.938Z,5.57
2023-04-01T10:49:12.231Z,6.27
2023-04-01T10:51:53.846Z,9.60
2023-04-01T10:54:31.362Z,11.97
2023-04-01T10:57:03.029Z,5.70
2023-04-01T10:59:38.467Z,7.57
2023-04-01T11:02:21.107Z,7.57
2023-04-01T11:05:07.188Z,5.07
2023-04-01T11:08:05.240Z,11.80
2023-04-01T11:10:52.908Z,4.60
2023-04-01T11:13:35.475Z,8.07
2023-04-01T11:16:16.689Z,2.87
2023-04-01T11:19:12.956Z,10.60
2023-04-01T11:21:57.010Z,7.37
2023-04-01T11:24:35.901Z,10.53
2023-04-01T11:27:14.496Z,9.30
2023-04-01T11:30:06.456Z,10.33
2023-04-01T11:32:41.764Z,16.90
2023-04-01T11:35:28.117Z,6.13
2023-04-01T11:38:00.808Z,7.23
2023-04-01T11:40:32.897Z,6.40
2023-04-01T11:43:03.573Z,10.07
2023-04-01T11:45:37.748Z,7.00
2023-04-01T11:48:13.802Z,2.93
2023-04-01T11:50:48.649Z,3.73
2023-04-01T11:53:21.559Z,3.53
2023-04-01T11:55:55.182Z,8.43
2023-04-01T11:58:46.232Z,3.67
2023-04-01T12:01:27.435Z,5.77
2023-04-01T12:04:14.230Z,4.17
2023-04-01T12:06:47.433Z,3.53
2023-04-01T12:09:17.820Z,6.50
2023-04-01T12:11:50.657Z,3.37
2023-04-01T12:14:21.920Z,5.00
2023-04-01T12:16:53.775Z,6.07
2023-04-01T12:19:26.534Z,5.23
2023-04-01T12:22:01.312Z,14.10
2023-04-01T12:24:38.335Z,5.77
2023-04-01T12:27:14.352Z,7.13
2023-04-01T12:29:49.868Z,4.73
2023-04-01T12:32:22.106Z,7.77
2023-04-01T12:35:00.782Z,4.80
2023-04-01T12:37:37.520Z,4.87
2023-04-01T12:40:19.117Z,4.47
2023-04-01T12:42:53.574Z,2.60
2023-04-01T12:45:30.094Z,4.77
2023-04-01T12:48:14.835Z,8.60
2023-04-01T12:50:53.696Z,4.13
2023-04-01T12:53:30.488Z,6.23
2023-04-01T12:55:58.396Z,7.40
2023-04-01T12:58:47.338Z,4.77
2023-04-01T13:01:25.157Z,4.37
2023-04-01T13:04:04.322Z,4.20
2023-04-01T13:06:45.551Z,5.73
2023-04-01T13:09:19.624Z,7.53
2023-04-01T13:11:54.786Z,6.97
2023-04-01T13:14:39.127Z,4.70
2023-04-01T13:17:11.560Z,7.73
2023-04-01T13:19:48.569Z,6.10
2023-04-01T13:22:29.367Z,5.17
2023-04-01T13:25:01.903Z,4.93
2023-04-01T13:27:33.076Z,1.90
2023-04-01T13:30:05.427Z,2.40
2023-04-01T13:35:18.799Z,6.33
2023-04-01T13:37:55.071Z,3.77
2023-04-01T13:40:36.502Z,4.73
2023-04-01T13:43:06.386Z,7.43
2023-04-01T13:45:40.999Z,2.73
2023-04-01T13:48:33.112Z,7.37
2023-04-01T13:51:14.014Z,6.90
2023-04-01T13:53:56.543Z,8.30
2023-04-01T13:56:36.213Z,5.80
2023-04-01T13:59:23.470Z,4.47
2023-04-01T14:01:56.393Z,5.77
2023-04-01T14:04:32.849Z,4.60
2023-04-01T14:07:05.104Z,6.27
2023-04-01T14:09:43.995Z,6.67
2023-04-01T14:12:19.138Z,7.57
2023-04-01T14:14:54.923Z,3.10
2023-04-01T14:17:31.735Z,4.97
2023-04-01T14:20:04.681Z,3.57
2023-04-01T14:22:36.519Z,4.93
2023-04-01T14:25:24.011Z,4.07
2023-04-01T14:27:57.731Z,5.70
2023-04-01T14:30:46.609Z,3.13
2023-04-01T14:33:22.121Z,4.73
2023-04-01T14:35:56.277Z,3.97
2023-04-01T14:38:29.798Z,3.97
2023-04-01T14:40:58.549Z,3.83
2023-04-01T14:43:35.169Z,4.87
2023-04-01T14:46:24.741Z,6.10
2023-04-01T14:48:53.861Z,4.43
2023-04-01T14:51:25.915Z,2.67
2023-04-01T14:53:58.660Z,3.23
2023-04-01T14:56:41.031Z,2.77
2023-04-01T14:59:16.428Z,2.90
2023-04-01T15:01:49.326Z,3.47
2023-04-01T15:04:36.238Z,3.63
2023-04-01T15:07:25.116Z,5.33
2023-04-01T15:09:58.271Z,3.73
2023-04-01T15:12:30.673Z,4.90
2023-04-01T15:15:16.865Z,5.63
2023-04-01T15:17:49.461Z,5.27
2023-04-01T15:20:31.515Z,5.07
2023-04-01T15:23:04.213Z,3.87
2023-04-01T15:25:38.237Z,5.07
2023-04-01T15:28:09.483Z,5.90
2023-04-01T15:30:40.821Z,5.53
2023-04-01T15:33:20.071Z,5.10
2023-04-01T15:35:50.972Z,5.00
2023-04-01T15:38:25.012Z,5.73
2023-04-01T15:40:56.193Z,4.10
2023-04-01T15:43:29.909Z,4.73
2023-04-01T15:46:12.637Z,7.43
2023-04-01T15:48:47.512Z,7.00
2023-04-01T15:51:42.336Z,7.57
2023-04-01T15:54:40.672Z,6.53
2023-04-01T15:57:15.851Z,3.33
2023-04-01T15:59:52.587Z,1.77
2023-04-01T16:02:24.270Z,1.43
2023-04-01T16:04:56.531Z,2.00
2023-04-01T16:07:28.652Z,1.90
2023-04-01T16:10:01.674Z,4.70
2023-04-01T16:12:38.555Z,3.00
2023-04-01T16:15:12.316Z,4.57
2023-04-01T16:17:51.011Z,3.13
2023-04-01T16:20:21.352Z,4.50
2023-04-01T16:22:54.485Z,4.87
2023-04-01T16:25:30.315Z,4.00
2023-04-01T16:28:05.911Z,4.90
2023-04-01T16:30:38.878Z,3.70
2023-04-01T16:33:13.924Z,4.77
2023-04-01T16:35:48.157Z,3.70
2023-04-01T16:38:21.303Z,3.30
2023-04-01T16:40:52.655Z,4.93
2023-04-01T16:43:25.466Z,3.93
2023-04-01T16:46:15.861Z,4.57
2023-04-01T16:48:54.659Z,4.93
2023-04-01T16:51:23.002Z,3.87
2023-04-01T16:53:53.108Z,4.67
2023-04-01T16:56:23.919Z,3.47
2023-04-01T16:58:59.937Z,3.50
2023-04-01T17:01:30.097Z,2.43
2023-04-01T17:04:07.046Z,1.77
2023-04-01T17:06:39.585Z,2.00
2023-04-01T17:09:13.950Z,2.20
2023-04-01T17:11:45.288Z,1.50
2023-04-01T17:14:19.905Z,1.80
2023-04-01T17:17:03.963Z,1.87
2023-04-01T17:19:41.893Z,2.40
2023-04-01T17:22:14.436Z,3.23
2023-04-01T17:24:49.208Z,2.30
2023-04-01T17:27:23.568Z,2.67
2023-04-01T17:30:10.853Z,1.50
2023-04-01T17:32:43.904Z,1.70
2023-04-01T17:35:15.470Z,2.60
2023-04-01T17:37:50.329Z,2.60
2023-04-01T17:40:24.068Z,2.40
2023-04-01T17:42:57.725Z,1.20
2023-04-01T17:45:29.563Z,1.50
2023-04-01T17:48:11.912Z,1.70
2023-04-01T17:50:50.969Z,1.53
2023-04-01T17:53:30.614Z,2.13
2023-04-01T17:56:09.634Z,2.13
2023-04-01T17:58:42.833Z,2.83
2023-04-01T18:01:15.625Z,3.40
2023-04-01T18:03:56.618Z,2.03
2023-04-01T18:06:32.430Z,2.10
2023-04-01T18:09:02.030Z,4.17
2023-04-01T18:11:40.254Z,2.73
2023-04-01T18:14:32.020Z,2.63
2023-04-01T18:17:14.677Z,2.40
2023-04-01T18:19:46.380Z,2.10
2023-04-01T18:22:21.054Z,2.87
2023-04-01T18:24:56.825Z,1.47
2023-04-01T18:27:26.825Z,3.00
2023-04-01T18:29:57.408Z,4.63
2023-04-01T18:32:28.750Z,2.60
2023-04-01T18:35:00.053Z,2.77
2023-04-01T18:37:30.138Z,2.10
2023-04-01T18:40:03.208Z,2.23
2023-04-01T18:42:34.991Z,2.73
2023-04-01T18:45:05.740Z,2.77
2023-04-01T18:47:38.786Z,2.57
2023-04-01T18:50:13.918Z,2.83
2023-04-01T18:52:44.413Z,2.50
2023-04-01T18:55:23.982Z,2.50
2023-04-01T18:57:53.958Z,2.30
2023-04-01T19:00:24.470Z,1.73
2023-04-01T19:02:55.348Z,2.03
2023-04-01T19:05:28.156Z,3.33
2023-04-01T19:07:57.815Z,2.33
2023-04-01T19:10:28.580Z,2.37
2023-04-01T19:13:05.993Z,2.60
2023-04-01T19:15:36.309Z,3.07
2023-04-01T19:18:19.723Z,2.30
2023-04-01T19:20:50.085Z,2.37
2023-04-01T19:23:29.708Z,2.10
2023-04-01T19:25:59.311Z,2.10
2023-04-01T19:28:33.519Z,2.00
2023-04-01T19:31:06.171Z,1.60
2023-04-01T19:33:39.696Z,2.27
2023-04-01T19:36:12.506Z,1.70
2023-04-01T19:38:42.785Z,1.23
2023-04-01T19:41:17.351Z,1.33
2023-04-01T19:43:53.318Z,1.23
2023-04-01T19:46:25.865Z,0.93
2023-04-01T19:49:00.985Z,1.10
2023-04-01T19:51:34.046Z,0.93
2023-04-01T19:54:06.284Z,1.17
2023-04-01T19:56:39.018Z,1.10
2023-04-01T19:59:13.085Z,1.03
2023-04-01T20:01:45.302Z,1.60
2023-04-01T20:04:15.387Z,1.00
2023-04-01T20:06:47.036Z,1.20
2023-04-01T20:09:29.312Z,1.00
2023-04-01T20:11:59.289Z,1.10
2023-04-01T20:14:31.165Z,1.23
2023-04-01T20:17:02.614Z,1.10
2023-04-01T20:19:32.171Z,1.37
2023-04-01T20:22:00.660Z,1.47
2023-04-01T20:24:33.056Z,1.70
2023-04-01T20:27:04.132Z,1.60
2023-04-01T20:29:39.995Z,2.23
2023-04-01T20:32:12.860Z,1.40
2023-04-01T20:35:02.518Z,1.63
2023-04-01T20:37:34.492Z,2.20
2023-04-01T20:40:32.776Z,1.40
2023-04-01T20:43:17.921Z,1.73
2023-04-01T20:45:53.008Z,1.27
2023-04-01T20:48:29.220Z,1.40
2023-04-01T20:51:00.174Z,1.53
2023-04-01T20:53:30.320Z,1.07
2023-04-01T20:56:11.058Z,1.43
2023-04-01T20:58:44.908Z,2.40
2023-04-01T21:01:19.438Z,1.87
2023-04-01T21:03:50.523Z,1.97
2023-04-01T21:06:30.110Z,1.43
2023-04-01T21:09:05.076Z,8.97
2023-04-01T21:11:38.338Z,2.57
2023-04-01T21:14:29.223Z,2.30
2023-04-01T21:17:04.191Z,3.33
2023-04-01T21:19:42.915Z,1.40
2023-04-01T21:22:17.683Z,2.97
2023-04-01T21:24:58.111Z,1.57
2023-04-01T21:27:35.497Z,4.93
2023-04-01T21:30:10.123Z,3.67
2023-04-01T21:32:48.860Z,3.30
2023-04-01T21:35:24.988Z,3.10
2023-04-01T21:38:01.628Z,3.37
2023-04-01T21:40:47.100Z,2.60
2023-04-01T21:43:30.899Z,3.20
2023-04-01T21:46:16.311Z,2.97
2023-04-01T21:49:03.741Z,3.73
2023-04-01T21:51:47.332Z,2.60
2023-04-01T21:54:38.174Z,3.90
2023-04-01T21:57:26.649Z,3.47
2023-04-01T22:00:17.376Z,3.10
2023-04-01T22:03:10.380Z,3.87
2023-04-01T22:05:58.877Z,3.03
2023-04-01T22:08:47.397Z,3.90
2023-04-01T22:11:22.915Z,3.00
2023-04-01T22:13:52.253Z,4.20
2023-04-01T22:16:26.697Z,3.63
2023-04-01T22:18:57.799Z,4.90
2023-04-01T22:21:30.428Z,7.23
2023-04-01T22:24:01.624Z,3.47
2023-04-01T22:26:35.862Z,3.57
2023-04-01T22:29:07.912Z,4.97
2023-04-01T22:31:40.827Z,3.23
2023-04-01T22:34:10.902Z,2.03
2023-04-01T22:36:43.320Z,1.60
2023-04-01T22:39:21.598Z,1.87
2023-04-01T22:41:59.032Z,3.57
2023-04-01T22:44:33.522Z,2.00
2023-04-01T22:47:05.545Z,1.97
2023-04-01T22:49:35.078Z,2.83
2023-04-01T22:52:06.972Z,2.37
2023-04-01T22:54:36.691Z,5.17
2023-04-01T22:57:07.426Z,3.37
2023-04-01T22:59:39.136Z,4.90
2023-04-01T23:02:11.431Z,4.07
2023-04-01T23:04:41.301Z,3.87
2023-04-01T23:07:30.698Z,2.33
2023-04-01T23:09:59.094Z,2.47
2023-04-01T23:12:28.649Z,3.73
2023-04-01T23:14:58.634Z,1.50
2023-04-01T23:17:42.071Z,1.77
2023-04-01T23:20:19.911Z,0.90
2023-04-01T23:22:55.671Z,3.73
2023-04-01T23:25:29.555Z,1.30
2023-04-01T23:28:03.709Z,0.63
2023-04-01T23:30:52.614Z,2.57
2023-04-01T23:33:29.844Z,1.43
2023-04-01T23:36:06.489Z,0.60
2023-04-01T23:38:35.877Z,2.87
2023-04-01T23:41:03.808Z,1.00
2023-04-01T23:43:34.536Z,1.27
2023-04-01T23:46:04.792Z,1.60
2023-04-01T23:48:34.564Z,0.80
2023-04-01T23:51:02.488Z,0.67
2023-04-01T23:53:31.748Z,2.43
2023-04-01T23:55:59.607Z,1.53
2023-04-01T23:58:28.555Z,1.77
